.
WxDataArchive / Data Records for 2009-01-02
2009-01-01 January 2009 2009-01-03

Data Records for Friday, 02 January 2009

Time	Temp	Chill	HIndex	Humid	Dewpt	 Wind 	HiWind	WindDir	Rain 	Barom 
-----	----	-----	------	-----	-----	------	------	-------	-----	----- 
00:00	33.1	33.1	33.1	51	17.0	2	6	248	0.00	29.841 
00:05	33.1	33.1	33.1	51	17.0	3	13	270	0.00	29.838 
00:10	33.1	33.1	33.1	51	17.0	3	10	248	0.00	29.838 
00:15	33.1	29.3	33.1	51	17.0	4	10	248	0.00	29.837 
00:20	33.1	33.1	33.1	51	17.0	3	7	248	0.00	29.837 
00:25	32.9	32.9	32.9	52	17.2	2	6	248	0.00	29.835 
00:30	32.9	32.9	32.9	52	17.2	3	6	248	0.00	29.834 
00:35	32.8	32.8	32.8	52	17.1	3	6	248	0.00	29.827 
00:40	32.8	32.8	32.8	52	17.1	3	11	248	0.00	29.825 
00:45	32.8	32.8	32.8	52	17.1	3	9	270	0.00	29.823 
00:50	32.9	29.1	32.9	52	17.2	4	10	248	0.00	29.823 
00:55	32.8	32.8	32.8	53	17.6	2	7	270	0.00	29.823 
01:00	32.8	29.0	32.8	53	17.6	4	9	248	0.00	29.822 
01:05	32.7	32.7	32.7	54	17.9	3	10	248	0.00	29.820 
01:10	32.7	32.7	32.7	54	17.9	2	6	270	0.00	29.818 
01:15	32.5	32.5	32.5	54	17.7	3	7	248	0.00	29.814 
01:20	32.4	32.4	32.4	54	17.6	3	14	248	0.00	29.813 
01:25	32.4	32.4	32.4	55	18.1	3	6	248	0.00	29.810 
01:30	32.2	32.2	32.2	55	17.9	3	9	248	0.00	29.809 
01:35	32.2	32.2	32.2	56	18.3	3	11	270	0.00	29.807 
01:40	32.2	28.3	32.2	56	18.3	4	7	248	0.00	29.815 
01:45	32.2	28.3	32.2	56	18.3	4	9	248	0.00	29.820 
01:50	32.1	32.1	32.1	57	18.6	3	9	248	0.00	29.821 
01:55	32.1	32.1	32.1	57	18.6	2	5	270	0.00	29.821 
02:00	32.1	32.1	32.1	58	19.0	3	11	248	0.00	29.820 
02:05	32.1	32.1	32.1	58	19.0	3	9	248	0.00	29.818 
02:10	32.2	32.2	32.2	58	19.1	3	10	270	0.00	29.817 
02:15	32.2	28.3	32.2	58	19.1	4	10	270	0.00	29.814 
02:20	32.2	32.2	32.2	58	19.1	3	7	248	0.00	29.815 
02:25	32.2	28.3	32.2	58	19.1	4	9	270	0.00	29.818 
02:30	32.2	32.2	32.2	58	19.1	3	10	248	0.00	29.815 
02:35	32.1	32.1	32.1	59	19.4	2	5	248	0.00	29.812 
02:40	32.1	32.1	32.1	59	19.4	2	7	248	0.00	29.810 
02:45	32.1	32.1	32.1	59	19.4	3	8	248	0.00	29.809 
02:50	32.1	32.1	32.1	60	19.8	3	11	248	0.00	29.815 
02:55	32.1	28.2	32.1	60	19.8	4	9	248	0.00	29.812 
03:00	32.2	32.2	32.2	60	19.9	3	9	270	0.00	29.814 
03:05	32.1	32.1	32.1	60	19.8	2	7	270	0.00	29.815 
03:10	32.1	32.1	32.1	60	19.8	3	9	248	0.00	29.814 
03:15	32.1	28.2	32.1	61	20.2	4	9	248	0.00	29.811 
03:20	31.9	31.9	31.9	61	20.0	3	9	248	0.00	29.810 
03:25	31.8	31.8	31.8	62	20.3	3	6	248	0.00	29.810 
03:30	31.6	31.6	31.6	62	20.1	2	6	248	0.00	29.811 
03:35	31.5	31.5	31.5	62	20.0	3	10	248	0.00	29.806 
03:40	31.5	31.5	31.5	62	20.0	3	7	248	0.00	29.810 
03:45	31.5	31.5	31.5	63	20.4	3	6	248	0.00	29.807 
03:50	31.3	31.3	31.3	63	20.2	3	10	248	0.00	29.808 
03:55	31.5	27.5	31.5	63	20.4	4	10	270	0.00	29.809 
04:00	31.5	31.5	31.5	64	20.7	3	10	270	0.00	29.812 
04:05	31.5	31.5	31.5	64	20.7	3	6	248	0.00	29.819 
04:10	31.5	31.5	31.5	64	20.7	2	10	248	0.00	29.814 
04:15	31.3	31.3	31.3	64	20.6	2	6	248	0.00	29.804 
04:20	31.5	31.5	31.5	64	20.7	3	7	248	0.00	29.806 
04:25	31.5	31.5	31.5	65	21.1	3	12	248	0.00	29.814 
04:30	31.5	31.5	31.5	65	21.1	3	9	248	0.00	29.814 
04:35	31.6	31.6	31.6	65	21.2	3	6	248	0.00	29.816 
04:40	31.6	31.6	31.6	65	21.2	3	7	248	0.00	29.817 
04:45	31.6	31.6	31.6	65	21.2	3	9	248	0.00	29.815 
04:50	31.6	31.6	31.6	65	21.2	3	10	248	0.00	29.809 
04:55	31.6	31.6	31.6	66	21.6	3	6	248	0.00	29.812 
05:00	31.5	31.5	31.5	66	21.5	2	7	248	0.00	29.817 
05:05	31.5	27.5	31.5	66	21.5	4	11	248	0.00	29.814 
05:10	31.5	31.5	31.5	66	21.5	3	7	248	0.00	29.814 
05:15	31.5	31.5	31.5	67	21.8	3	6	248	0.00	29.815 
05:20	31.6	31.6	31.6	67	21.9	3	7	248	0.00	29.815 
05:25	31.5	31.5	31.5	67	21.8	2	7	270	0.00	29.816 
05:30	31.5	31.5	31.5	67	21.8	3	7	270	0.00	29.815 
05:35	31.6	31.6	31.6	67	21.9	3	9	248	0.00	29.814 
05:40	31.6	27.6	31.6	67	21.9	4	9	248	0.00	29.816 
05:45	31.6	31.6	31.6	67	21.9	2	7	248	0.00	29.818 
05:50	31.5	31.5	31.5	68	22.2	3	11	248	0.00	29.819 
05:55	31.5	31.5	31.5	68	22.2	2	6	248	0.00	29.819 
06:00	31.3	31.3	31.3	68	22.0	1	5	248	0.00	29.823 
06:05	31.2	31.2	31.2	68	21.9	2	5	248	0.00	29.822 
06:10	31.2	31.2	31.2	69	22.2	2	6	248	0.00	29.824 
06:15	31.0	31.0	31.0	69	22.0	3	7	248	0.00	29.829 
06:20	31.0	31.0	31.0	69	22.0	2	7	248	0.00	29.831 
06:25	30.9	30.9	30.9	70	22.3	2	6	248	0.00	29.829 
06:30	30.9	30.9	30.9	70	22.3	2	5	248	0.00	29.828 
06:35	30.7	30.7	30.7	70	22.1	2	6	248	0.00	29.831 
06:40	30.7	30.7	30.7	70	22.1	3	7	248	0.00	29.835 
06:45	30.7	30.7	30.7	71	22.4	3	7	248	0.00	29.835 
06:50	30.6	30.6	30.6	71	22.3	1	5	248	0.00	29.837 
06:55	30.3	30.3	30.3	72	22.4	1	5	225	0.00	29.843 
07:00	30.3	30.3	30.3	72	22.4	2	7	270	0.00	29.844 
07:05	30.3	30.3	30.3	72	22.4	3	6	248	0.00	29.847 
07:10	30.3	30.3	30.3	72	22.4	3	6	270	0.00	29.853 
07:15	30.3	30.3	30.3	72	22.4	3	6	248	0.00	29.855 
07:20	30.3	30.3	30.3	73	22.7	3	6	248	0.00	29.856 
07:25	30.1	30.1	30.1	73	22.5	2	7	248	0.00	29.856 
07:30	30.0	30.0	30.0	73	22.4	3	6	248	0.00	29.854 
07:35	30.0	30.0	30.0	73	22.4	3	9	248	0.00	29.853 
07:40	29.8	29.8	29.8	73	22.2	3	9	248	0.00	29.855 
07:45	29.7	29.7	29.7	73	22.1	2	5	248	0.00	29.854 
07:50	29.7	29.7	29.7	74	22.4	3	7	248	0.00	29.854 
07:55	29.5	29.5	29.5	74	22.3	2	6	270	0.00	29.854 
08:00	29.4	29.4	29.4	74	22.2	3	9	248	0.00	29.854 
08:05	29.4	29.4	29.4	75	22.5	3	8	248	0.00	29.855 
08:10	29.4	25.1	29.4	75	22.5	4	10	248	0.00	29.853 
08:15	29.4	29.4	29.4	75	22.5	2	7	248	0.00	29.853 
08:20	29.4	29.4	29.4	75	22.5	2	7	248	0.00	29.853 
08:25	29.5	29.5	29.5	75	22.6	2	7	248	0.00	29.854 
08:30	29.5	29.5	29.5	75	22.6	2	6	248	0.00	29.854 
08:35	29.8	29.8	29.8	74	22.5	3	9	248	0.00	29.854 
08:40	30.0	30.0	30.0	74	22.7	3	9	248	0.00	29.853 
08:45	30.1	30.1	30.1	74	22.8	3	7	248	0.00	29.853 
08:50	30.1	30.1	30.1	73	22.5	3	9	248	0.00	29.853 
08:55	30.3	30.3	30.3	73	22.7	3	8	248	0.00	29.854 
09:00	30.4	30.4	30.4	72	22.5	3	12	248	0.00	29.854 
09:05	30.6	30.6	30.6	71	22.3	3	8	248	0.00	29.853 
09:10	30.6	30.6	30.6	71	22.3	3	9	248	0.00	29.853 
09:15	30.7	30.7	30.7	70	22.1	3	8	248	0.00	29.853 
09:20	30.9	30.9	30.9	70	22.3	3	9	248	0.00	29.852 
09:25	31.2	31.2	31.2	69	22.2	3	7	248	0.00	29.852 
09:30	31.3	27.3	31.3	68	22.0	4	10	248	0.00	29.852 
09:35	31.6	31.6	31.6	68	22.3	3	7	270	0.00	29.849 
09:40	31.8	31.8	31.8	68	22.5	3	15	270	0.00	29.849 
09:45	32.1	28.2	32.1	67	22.4	4	15	248	0.00	29.844 
09:50	32.2	27.3	32.2	66	22.1	5	12	248	0.00	29.847 
09:55	32.2	28.3	32.2	66	22.1	4	13	248	0.00	29.849 
10:00	32.4	28.5	32.4	65	22.0	4	10	248	0.00	29.849 
10:05	32.5	28.7	32.5	65	22.1	4	15	248	0.00	29.851 
10:10	32.7	28.9	32.7	63	21.5	4	10	248	0.00	29.849 
10:15	32.9	32.9	32.9	63	21.7	3	10	270	0.00	29.849 
10:20	33.2	28.5	33.2	61	21.2	5	12	270	0.00	29.850 
10:25	33.4	28.7	33.4	59	20.6	5	13	270	0.00	29.860 
10:30	33.7	29.1	33.7	59	20.9	5	10	270	0.00	29.863 
10:35	33.7	29.1	33.7	59	20.9	5	17	270	0.00	29.861 
10:40	33.7	29.1	33.7	59	20.9	5	11	270	0.00	29.862 
10:45	33.7	30.0	33.7	59	20.9	4	9	270	0.00	29.868 
10:50	33.7	29.1	33.7	60	21.3	5	12	270	0.00	29.869 
10:55	33.8	30.2	33.8	59	21.0	4	11	270	0.00	29.867 
11:00	33.8	29.2	33.8	58	20.6	5	11	270	0.00	29.866 
11:05	34.0	29.4	34.0	58	20.8	5	9	270	0.00	29.866 
11:10	34.0	29.4	34.0	57	20.4	5	11	270	0.00	29.871 
11:15	34.1	30.5	34.1	57	20.5	4	12	270	0.00	29.877 
11:20	34.4	30.8	34.4	56	20.3	4	10	270	0.00	29.878 
11:25	34.4	29.9	34.4	56	20.3	5	11	270	0.00	29.879 
11:30	34.3	29.8	34.3	56	20.3	5	13	270	0.00	29.879 
11:35	34.4	29.9	34.4	56	20.3	5	7	270	0.00	29.876 
11:40	34.6	31.1	34.6	56	20.5	4	10	270	0.00	29.871 
11:45	34.9	31.4	34.9	55	20.4	4	11	270	0.00	29.864 
11:50	34.9	30.5	34.9	55	20.4	5	9	270	0.00	29.866 
11:55	34.9	30.5	34.9	55	20.4	5	11	270	0.00	29.866 
12:00	34.9	30.5	34.9	54	20.0	5	11	270	0.00	29.865 
12:05	35.0	35.0	35.0	55	20.5	3	9	270	0.00	29.867 
12:10	35.0	31.5	35.0	54	20.1	4	10	270	0.00	29.867 
12:15	34.7	31.2	34.7	54	19.8	4	10	270	0.00	29.865 
12:20	34.6	31.1	34.6	54	19.7	4	9	270	0.00	29.864 
12:25	34.3	30.7	34.3	55	19.8	4	9	270	0.00	29.868 
12:30	34.3	34.3	34.3	55	19.8	3	6	270	0.00	29.867 
12:35	34.3	30.7	34.3	54	19.4	4	7	270	0.00	29.866 
12:40	34.3	30.7	34.3	54	19.4	4	9	270	0.00	29.869 
12:45	34.1	30.5	34.1	55	19.6	4	11	270	0.00	29.866 
12:50	34.3	30.7	34.3	54	19.4	4	11	270	0.00	29.865 
12:55	34.4	34.4	34.4	54	19.5	3	15	270	0.00	29.866 
13:00	34.4	30.8	34.4	55	19.9	4	12	270	0.00	29.874 
13:05	34.4	30.8	34.4	54	19.5	4	8	270	0.00	29.876 
13:10	34.4	30.8	34.4	53	19.1	4	13	270	0.00	29.870 
13:15	34.4	30.8	34.4	51	18.2	4	11	270	0.00	29.867 
13:20	34.3	30.7	34.3	50	17.6	4	12	270	0.00	29.868 
13:25	34.3	30.7	34.3	50	17.6	4	9	270	0.00	29.867 
13:30	34.1	30.5	34.1	49	17.0	4	10	270	0.00	29.867 
13:35	34.1	30.5	34.1	48	16.5	4	7	270	0.00	29.866 
13:40	34.0	30.4	34.0	47	15.9	4	7	270	0.00	29.866 
13:45	34.0	30.4	34.0	47	15.9	4	9	270	0.00	29.867 
13:50	34.1	34.1	34.1	47	16.0	3	8	270	0.00	29.866 
13:55	34.4	34.4	34.4	48	16.8	3	6	270	0.00	29.865 
14:00	34.3	34.3	34.3	46	15.7	3	6	270	0.00	29.867 
14:05	34.1	34.1	34.1	46	15.5	3	11	270	0.00	29.872 
14:10	33.8	30.2	33.8	46	15.2	4	12	270	0.00	29.879 
14:15	33.7	30.0	33.7	46	15.1	4	13	270	0.00	29.879 
14:20	33.7	33.7	33.7	45	14.6	3	6	270	0.00	29.879 
14:25	33.7	30.0	33.7	44	14.1	4	10	270	0.00	29.879 
14:30	34.3	34.3	34.3	43	14.2	3	9	270	0.00	29.880 
14:35	34.3	29.8	34.3	40	12.5	5	11	270	0.00	29.879 
14:40	34.3	30.7	34.3	40	12.5	4	9	270	0.00	29.880 
14:45	34.6	31.1	34.6	41	13.3	4	10	270	0.00	29.884 
14:50	34.9	34.9	34.9	42	14.2	3	9	270	0.00	29.884 
14:55	34.6	34.6	34.6	42	13.9	3	6	270	0.00	29.883 
15:00	34.0	34.0	34.0	43	13.9	2	5	270	0.00	29.880 
15:05	33.7	33.7	33.7	44	14.1	3	10	270	0.00	29.880 
15:10	33.8	33.8	33.8	44	14.2	3	6	270	0.00	29.882 
15:15	33.8	30.2	33.8	43	13.7	4	13	270	0.00	29.882 
15:20	33.8	33.8	33.8	44	14.2	2	5	270	0.00	29.886 
15:25	34.0	34.0	34.0	45	14.9	3	6	270	0.00	29.887 
15:30	33.8	33.8	33.8	44	14.2	3	6	270	0.00	29.887 
15:35	34.0	34.0	34.0	43	13.9	3	11	270	0.00	29.890 
15:40	34.0	34.0	34.0	44	14.4	3	7	270	0.00	29.895 
15:45	34.0	34.0	34.0	45	14.9	3	5	270	0.00	29.896 
15:50	34.1	34.1	34.1	44	14.5	2	7	270	0.00	29.900 
15:55	34.4	34.4	34.4	43	14.2	3	8	270	0.00	29.904 
16:00	34.0	34.0	34.0	43	13.9	3	6	270	0.00	29.905 
16:05	33.5	33.5	33.5	43	13.4	3	6	270	0.00	29.904 
16:10	33.4	33.4	33.4	43	13.3	3	6	270	0.00	29.910 
16:15	33.1	33.1	33.1	44	13.6	2	6	270	0.00	29.914 
16:20	32.8	32.8	32.8	44	13.3	3	5	270	0.00	29.914 
16:25	32.7	32.7	32.7	44	13.2	3	6	270	0.00	29.918 
16:30	32.4	32.4	32.4	45	13.5	2	4	270	0.00	29.923 
16:35	32.2	32.2	32.2	46	13.8	1	3	248	0.00	29.928 
16:40	32.1	32.1	32.1	46	13.7	2	5	270	0.00	29.930 
16:45	32.2	32.2	32.2	46	13.8	2	5	270	0.00	29.935 
16:50	32.2	32.2	32.2	47	14.3	0	2	248	0.00	29.939 
16:55	32.1	32.1	32.1	47	14.2	1	6	248	0.00	29.943 
17:00	31.8	31.8	31.8	47	13.9	1	6	315	0.00	29.943 
17:05	31.6	31.6	31.6	48	14.2	1	3	292	0.00	29.945 
17:10	31.3	31.3	31.3	48	13.9	2	6	292	0.00	29.946 
17:15	31.2	31.2	31.2	48	13.8	2	5	270	0.00	29.947 
17:20	30.9	30.9	30.9	49	14.0	1	4	338	0.00	29.949 
17:25	30.7	30.7	30.7	50	14.3	1	4	270	0.00	29.953 
17:30	30.4	30.4	30.4	50	14.0	1	6	270	0.00	29.957 
17:35	30.3	30.3	30.3	50	13.9	1	3	315	0.00	29.961 
17:40	30.1	30.1	30.1	50	13.7	2	6	270	0.00	29.965 
17:45	30.0	30.0	30.0	51	14.1	1	5	338	0.00	29.965 
17:50	29.8	29.8	29.8	51	13.9	1	4	248	0.00	29.967 
17:55	29.7	29.7	29.7	51	13.8	1	4	248	0.00	29.977 
18:00	29.5	29.5	29.5	52	14.1	0	2	315	0.00	29.980 
18:05	29.4	29.4	29.4	53	14.4	0	3	248	0.00	29.984 
18:10	29.3	29.3	29.3	53	14.3	0	2	248	0.00	29.985 
18:15	29.1	29.1	29.1	54	14.6	0	2	248	0.00	29.985 
18:20	29.0	29.0	29.0	54	14.5	0	1	248	0.00	29.990 
18:25	28.8	28.8	28.8	55	14.7	0	2	248	0.00	29.995 
18:30	28.7	28.7	28.7	55	14.6	0	3	248	0.00	29.997 
18:35	28.5	28.5	28.5	56	14.8	0	1	248	0.00	29.999 
18:40	28.4	28.4	28.4	57	15.1	0	2	248	0.00	30.001 
18:45	28.2	28.2	28.2	57	14.9	0	1	248	0.00	30.003 
18:50	28.1	28.1	28.1	58	15.3	0	2	248	0.00	30.010 
18:55	27.9	27.9	27.9	58	15.1	0	1	248	0.00	30.013 
19:00	27.8	27.8	27.8	58	15.0	0	0	---	0.00	30.015 
19:05	27.5	27.5	27.5	58	14.7	0	0	---	0.00	30.020 
19:10	27.3	27.3	27.3	58	14.5	0	1	248	0.00	30.023 
19:15	27.2	27.2	27.2	57	14.0	1	3	315	0.00	30.024 
19:20	27.2	27.2	27.2	57	14.0	0	2	315	0.00	30.029 
19:25	27.0	27.0	27.0	57	13.8	0	2	315	0.00	30.030 
19:30	27.0	27.0	27.0	57	13.8	0	2	315	0.00	30.030 
19:35	26.9	26.9	26.9	57	13.7	0	1	315	0.00	30.032 
19:40	26.6	26.6	26.6	57	13.4	0	1	315	0.00	30.032 
19:45	26.4	26.4	26.4	58	13.7	0	1	315	0.00	30.034 
19:50	26.1	26.1	26.1	58	13.4	0	0	---	0.00	30.032 
19:55	26.0	26.0	26.0	59	13.7	0	1	315	0.00	30.033 
20:00	25.8	25.8	25.8	59	13.5	0	2	315	0.00	30.039 
20:05	25.6	25.6	25.6	60	13.7	0	1	315	0.00	30.040 
20:10	25.4	25.4	25.4	61	13.9	0	1	315	0.00	30.046 
20:15	25.3	25.3	25.3	61	13.8	0	1	315	0.00	30.049 
20:20	25.1	25.1	25.1	61	13.6	0	1	315	0.00	30.052 
20:25	25.0	25.0	25.0	62	13.8	0	2	315	0.00	30.054 
20:30	25.0	25.0	25.0	62	13.8	0	1	315	0.00	30.056 
20:35	25.0	25.0	25.0	62	13.8	0	1	315	0.00	30.058 
20:40	24.8	24.8	24.8	62	13.7	0	1	315	0.00	30.058 
20:45	24.7	24.7	24.7	62	13.6	0	1	315	0.00	30.060 
20:50	24.5	24.5	24.5	62	13.4	0	1	315	0.00	30.059 
20:55	24.2	24.2	24.2	63	13.4	0	1	315	0.00	30.062 
21:00	24.1	24.1	24.1	63	13.4	0	0	---	0.00	30.063 
21:05	23.9	23.9	23.9	64	13.5	0	0	---	0.00	30.061 
21:10	23.8	23.8	23.8	64	13.4	0	0	---	0.00	30.062 
21:15	23.5	23.5	23.5	64	13.1	0	0	---	0.00	30.064 
21:20	23.3	23.3	23.3	65	13.3	0	0	---	0.00	30.070 
21:25	23.0	23.0	23.0	65	13.0	0	0	---	0.00	30.076 
21:30	22.9	22.9	22.9	65	12.9	0	0	---	0.00	30.071 
21:35	22.5	22.5	22.5	66	12.9	0	0	---	0.00	30.070 
21:40	22.2	22.2	22.2	67	12.9	0	0	---	0.00	30.076 
21:45	21.9	21.9	21.9	67	12.7	0	0	---	0.00	30.080 
21:50	21.6	21.6	21.6	68	12.7	0	0	---	0.00	30.083 
21:55	21.3	21.3	21.3	68	12.4	0	0	---	0.00	30.093 
22:00	21.0	21.0	21.0	69	12.5	0	0	---	0.00	30.098 
22:05	20.6	20.6	20.6	70	12.4	0	0	---	0.00	30.097 
22:10	20.3	20.3	20.3	70	12.1	0	0	---	0.00	30.096 
22:15	20.0	20.0	20.0	71	12.1	0	0	---	0.00	30.096 
22:20	19.7	19.7	19.7	73	12.5	0	0	---	0.00	30.094 
22:25	19.5	19.5	19.5	73	12.3	0	0	---	0.00	30.095 
22:30	19.2	19.2	19.2	74	12.3	0	0	---	0.00	30.098 
22:35	19.1	19.1	19.1	74	12.2	0	0	---	0.00	30.096 
22:40	18.9	18.9	18.9	74	12.0	0	0	---	0.00	30.095 
22:45	18.6	18.6	18.6	75	12.0	0	0	---	0.00	30.098 
22:50	18.4	18.4	18.4	75	11.8	0	0	---	0.00	30.098 
22:55	18.1	18.1	18.1	76	11.8	0	0	---	0.00	30.096 
23:00	18.1	18.1	18.1	77	12.1	0	0	---	0.00	30.096 
23:05	18.0	18.0	18.0	77	12.0	0	0	---	0.00	30.093 
23:10	17.7	17.7	17.7	77	11.7	0	0	---	0.00	30.093 
23:15	17.5	17.5	17.5	78	11.8	0	0	---	0.00	30.088 
23:20	17.5	17.5	17.5	79	12.1	0	0	---	0.00	30.085 
23:25	17.3	17.3	17.3	79	11.9	0	0	---	0.00	30.083 
23:30	17.3	17.3	17.3	80	12.2	0	0	---	0.00	30.083 
23:35	17.3	17.3	17.3	80	12.2	0	0	---	0.00	30.083 
23:40	17.2	17.2	17.2	81	12.4	0	0	---	0.00	30.082 
23:45	17.2	17.2	17.2	81	12.4	0	0	---	0.00	30.083 
23:50	17.2	17.2	17.2	81	12.4	0	0	---	0.00	30.083 
23:55	17.0	17.0	17.0	82	12.5	0	0	---	0.00	30.083 

CoCoRaHS
IN-AL-39
A2 Web Hosting
Creative Commons License
GoDaddy
search engine by freefind advanced

loaded 2018-11-17 23:39:23 • last modified 2010-11-18 10:43:29
Privacy PolicyDisclaimer
• wx.awcolley.com is powered by PmWiki v.2002016 •
• all content (unless otherwise noted) © 2018 A W Colley